Date,TemperatureHighF,TemperatureAvgF,TemperatureLowF,DewpointHighF,DewpointAvgF,DewpointLowF,HumidityHigh,HumidityAvg,HumidityLow,PressureMaxIn,PressureMinIn,WindSpeedMaxMPH,WindSpeedAvgMPH,GustSpeedMaxMPH,PrecipitationSumIn
2013-1-1,16,10,5,7,4,1,84,74,61,30.22,30.11,17,6,17,0.00
2013-1-2,27,21,8,21,14,2,83,73,60,30.15,30.01,14,3,18,0.00
2013-1-3,26,23,16,21,18,11,83,81,78,30.16,30.00,25,10,29,0.00
2013-1-4,30,22,14,20,15,8,83,76,66,30.15,30.00,27,9,36,0.00
2013-1-5,38,29,18,34,25,15,94,84,71,30.18,29.82,23,6,28,0.05
2013-1-6,35,29,21,33,24,18,90,81,71,30.25,29.81,22,7,23,0.01
2013-1-7,40,29,18,28,22,14,89,74,55,30.24,29.99,31,9,39,0.00
2013-1-8,40,34,28,33,29,25,90,82,70,30.08,29.88,26,4,28,0.00
2013-1-9,42,37,31,33,28,23,82,69,54,30.39,29.84,34,10,36,0.00
2013-1-10,39,34,25,37,30,20,96,85,71,30.46,29.87,19,3,23,0.45
2013-1-11,52,43,38,49,42,37,100,96,85,29.87,29.56,24,4,26,0.14
2013-1-12,54,41,27,48,34,22,89,75,64,29.94,29.56,30,10,36,0.00
2013-1-13,27,20,14,24,14,7,89,79,71,30.16,29.83,23,8,29,0.00
2013-1-14,26,17,10,13,9,5,79,69,49,30.42,30.16,18,6,20,0.00
2013-1-15,32,23,15,18,14,11,85,70,50,30.40,30.05,15,5,17,0.00
2013-1-16,34,28,20,29,20,11,86,74,55,30.05,29.69,29,9,38,0.00
2013-1-17,30,21,15,23,10,2,78,63,45,30.37,30.00,20,5,22,0.00
2013-1-18,43,30,13,34,22,7,82,72,62,30.39,29.75,50,10,50,0.05
2013-1-19,45,39,16,35,30,4,80,71,42,29.81,29.56,39,11,50,0.04
2013-1-20,16,11,8,4,0,-1,76,62,51,30.25,29.81,41,11,44,0.00
2013-1-21,10,4,-3,2,-6,-12,77,63,53,30.27,30.09,27,10,32,0.00
2013-1-22,6,1,-5,-3,-9,-14,76,64,57,30.35,30.25,20,9,22,0.00
2013-1-23,19,12,3,14,4,-5,85,71,62,30.36,30.06,24,6,24,0.00
2013-1-24,18,11,3,10,2,-4,75,67,59,30.63,30.36,20,4,25,0.00
2013-1-25,24,20,17,20,14,7,88,77,57,30.36,29.91,22,6,23,0.00
2013-1-26,26,19,10,17,11,5,81,72,60,30.36,30.14,13,4,17,0.00
2013-1-27,34,30,26,33,25,15,96,83,62,30.34,29.85,18,6,22,0.03
2013-1-28,41,36,33,37,34,32,97,91,76,29.93,29.73,14,2,15,0.07
2013-1-29,60,46,37,58,44,36,99,96,88,29.80,29.40,19,4,23,1.19
2013-1-30,38,29,17,36,27,13,96,92,83,29.51,29.19,23,10,27,0.17
2013-1-31,17,12,5,13,6,-1,86,76,70,30.07,29.51,27,13,29,0.00
2013-2-1,8,4,0,5,-3,-6,85,73,63,30.28,30.07,22,9,28,0.00
2013-2-2,14,9,5,6,3,-1,87,75,55,30.15,30.00,14,5,16,0.00
2013-2-3,18,13,6,11,7,0,92,75,65,30.02,29.92,26,6,27,0.00
2013-2-4,19,14,10,14,9,3,89,79,59,30.01,29.91,13,3,15,0.00
2013-2-5,27,19,6,23,14,2,92,80,69,30.07,29.75,17,5,23,0.00
2013-2-6,34,24,9,31,18,6,90,78,61,30.22,30.06,14,1,15,0.02
2013-2-7,34,32,24,32,30,23,97,92,84,30.09,29.87,12,1,17,0.12
2013-2-8,25,21,11,23,19,9,95,90,83,30.37,29.97,0,0,0,0.00
2013-2-9,30,20,8,26,17,5,100,89,83,30.38,30.07,18,2,21,0.01
2013-2-10,44,36,28,43,34,25,100,93,84,30.07,29.36,27,5,30,0.62
2013-2-11,43,33,28,38,28,22,88,80,72,29.92,29.35,42,14,46,0.01
2013-2-12,30,26,22,22,20,17,92,78,67,30.03,29.82,19,7,21,0.00
2013-2-13,40,31,23,31,26,20,91,81,67,29.83,29.65,16,4,16,0.00
2013-2-14,37,34,28,34,30,24,94,86,77,29.93,29.52,22,6,26,0.05
2013-2-15,28,21,14,24,12,6,89,69,54,30.15,29.93,16,6,19,0.00
2013-2-16,14,10,8,7,4,3,80,76,70,30.14,30.11,12,6,20,0.00
2013-2-17,29,17,6,19,6,0,74,62,46,30.20,29.97,8,3,17,0.00
2013-2-18,48,37,29,41,31,20,95,78,65,29.97,29.34,21,6,25,0.40
2013-2-19,33,18,10,32,13,1,95,81,66,30.11,29.39,36,15,39,0.01
2013-2-20,22,15,8,12,7,1,77,71,63,30.35,30.10,21,7,23,0.00
2013-2-21,28,22,15,25,18,9,92,84,73,30.40,30.09,29,8,32,0.00
2013-2-22,32,29,25,30,27,22,96,92,84,30.09,29.75,26,7,31,0.02
2013-2-23,30,27,22,26,22,18,92,80,71,29.87,29.78,15,5,18,0.00
2013-2-24,36,28,22,29,23,17,93,83,68,30.11,29.87,17,4,18,0.00
2013-2-25,37,29,18,32,26,16,94,88,74,30.15,30.02,10,1,12,0.01
2013-2-26,34,33,32,32,30,27,98,88,79,30.03,29.56,31,13,34,0.00
2013-2-27,33,32,30,32,32,29,98,98,98,29.69,29.52,21,9,26,0.16
2013-2-28,33,30,26,32,27,21,100,86,78,30.07,29.69,23,10,27,0.06
2013-3-1,26,25,22,21,20,16,87,81,75,30.19,30.05,24,10,27,0.00
2013-3-2,26,21,16,18,15,10,81,76,68,30.19,30.13,17,6,18,0.00
2013-3-3,27,19,11,16,10,0,87,70,33,30.13,30.07,12,3,13,0.00
2013-3-4,32,24,10,28,19,6,89,82,73,30.13,30.03,17,4,18,0.00
2013-3-5,33,30,28,28,26,23,95,84,67,30.03,29.86,24,10,28,0.00
2013-3-6,35,31,27,29,26,24,88,83,77,30.25,30.00,22,6,22,0.00
2013-3-7,32,29,24,25,22,19,83,78,74,30.41,30.25,12,3,13,0.00
2013-3-8,36,29,18,30,25,14,94,84,76,30.45,30.27,11,2,13,0.00
2013-3-9,38,35,33,36,31,27,93,87,79,30.27,29.79,16,4,19,0.08
2013-3-10,40,37,34,40,36,33,98,97,93,29.79,29.57,26,4,28,1.00
2013-3-11,39,35,31,38,34,28,98,95,86,29.67,29.45,18,3,22,0.05
2013-3-12,34,30,26,28,24,21,92,77,61,29.93,29.67,20,8,22,0.01
2013-3-13,32,26,21,22,14,8,89,61,39,30.26,29.93,24,9,25,0.00
2013-3-14,39,30,21,28,19,13,88,64,40,30.25,30.01,14,5,16,0.00
2013-3-15,38,32,29,32,29,27,96,89,76,30.01,29.79,23,6,26,0.04
2013-3-16,32,28,23,28,23,18,96,82,61,30.09,29.77,28,8,29,0.00
2013-3-17,31,24,18,25,16,9,80,71,65,30.24,30.01,17,6,20,0.00
2013-3-18,34,30,20,33,27,14,96,88,76,30.02,29.52,30,7,36,0.11
2013-3-19,30,21,15,14,11,9,80,65,47,29.98,29.63,34,14,39,0.00
2013-3-20,22,16,12,9,5,0,65,60,53,30.01,29.97,24,12,29,0.00
2013-3-21,30,21,13,17,11,5,74,65,54,30.01,29.96,18,7,20,0.00
2013-3-22,34,26,17,23,17,10,81,68,54,30.06,29.98,10,3,12,0.00
2013-3-23,34,28,21,27,22,16,84,76,57,30.12,30.02,14,3,15,0.00
2013-3-24,34,32,30,32,28,24,100,83,74,30.03,29.72,28,11,33,0.05
2013-3-25,35,32,28,28,26,22,88,78,66,30.05,29.73,25,8,27,0.00
2013-3-26,41,35,30,30,27,25,84,72,64,30.19,30.04,15,5,18,0.00
2013-3-27,44,38,33,28,24,19,77,58,40,30.25,30.18,17,4,19,0.00
2013-3-28,44,36,30,31,25,21,75,64,48,30.29,30.24,10,2,12,0.00
2013-3-29,45,36,31,32,24,22,77,62,44,30.28,30.19,10,2,12,0.00
2013-3-30,56,41,30,43,32,22,88,69,45,30.19,29.75,20,4,22,0.01
2013-3-31,50,42,33,43,35,20,94,77,51,29.83,29.63,27,9,30,0.01
2013-4-1,36,31,26,21,15,10,61,51,38,30.13,29.83,24,8,26,0.00
2013-4-2,40,32,26,18,16,12,69,51,32,30.26,30.12,21,7,25,0.00
2013-4-3,38,32,25,22,18,12,75,57,37,30.44,30.25,13,3,16,0.00
2013-4-4,58,44,30,36,25,10,62,48,36,30.26,29.89,25,7,27,0.00
2013-4-5,43,36,32,31,27,22,86,71,57,30.22,29.96,22,6,27,0.00
2013-4-6,56,43,35,50,37,26,85,78,63,30.15,29.48,24,7,29,0.11
2013-4-7,55,42,36,50,36,32,94,81,62,29.95,29.47,29,6,29,0.04
2013-4-8,47,39,36,44,37,34,97,94,85,29.96,29.57,21,4,26,0.77
2013-4-9,39,37,36,38,36,35,98,97,94,30.01,29.84,32,10,35,1.03
2013-4-10,38,36,34,36,35,32,97,96,92,30.11,29.84,34,15,38,2.00
2013-4-11,37,36,35,37,35,34,98,97,91,29.93,29.57,34,12,42,1.41
2013-4-12,41,37,34,39,36,32,99,95,83,29.74,29.48,15,4,19,0.17
2013-4-13,39,36,32,33,29,26,91,75,61,29.95,29.72,25,6,26,0.01
2013-4-14,42,37,32,40,33,27,98,88,77,29.99,29.63,22,4,25,0.04
2013-4-15,63,52,40,52,46,34,96,82,42,29.90,29.59,30,7,36,0.35
2013-4-16,53,42,36,40,35,31,94,77,52,30.26,29.88,18,4,22,0.01
2013-4-17,42,39,37,40,36,34,97,91,79,30.30,29.86,24,8,24,0.78
2013-4-18,47,42,39,47,41,35,99,97,78,29.87,29.32,33,5,35,1.33
2013-4-19,41,37,32,36,29,22,90,74,60,29.82,29.30,32,12,37,0.02
2013-4-20,43,34,28,27,21,13,75,61,32,30.40,29.82,21,6,23,0.00
2013-4-21,45,38,32,36,30,26,81,73,61,30.50,30.25,18,4,20,0.00
2013-4-22,51,45,40,40,37,31,90,74,54,30.26,29.99,17,4,18,0.00
2013-4-23,57,44,38,50,40,35,95,87,67,29.99,29.83,24,3,26,0.52
2013-4-24,53,43,35,35,28,22,87,57,31,29.98,29.89,18,4,25,0.00
2013-4-25,53,46,37,36,31,27,90,59,39,30.25,29.91,24,6,30,0.04
2013-4-26,68,52,40,47,39,28,85,61,41,30.28,30.10,36,8,38,0.00
2013-4-27,57,51,46,48,44,41,85,78,66,30.18,29.97,19,4,20,0.00
2013-4-28,53,48,45,50,43,40,92,81,72,29.97,29.77,11,2,12,0.00
2013-4-29,71,56,46,56,50,43,94,81,50,29.81,29.70,18,4,21,0.01
2013-4-30,87,66,46,61,53,43,95,67,30,29.83,29.66,31,8,34,0.00
2013-5-1,78,60,46,60,51,39,92,73,44,30.17,29.83,29,8,34,0.00
2013-5-2,49,44,39,43,39,35,93,83,73,30.23,30.13,26,11,33,0.42
2013-5-3,47,41,38,44,39,36,96,92,87,30.17,29.97,25,11,30,0.27
2013-5-4,60,50,44,48,44,41,89,78,63,30.03,29.96,19,7,27,0.00
2013-5-5,57,51,46,44,41,37,85,69,49,30.04,29.98,19,6,23,0.00
2013-5-6,60,52,48,45,41,38,80,66,46,30.03,29.94,11,2,13,0.00
2013-5-7,69,54,47,48,41,37,80,64,44,30.02,29.95,13,2,14,0.00
2013-5-8,73,55,46,50,43,38,86,66,40,29.99,29.91,9,1,11,0.00
2013-5-9,63,51,41,50,45,40,95,81,60,29.91,29.86,37,6,40,0.54
2013-5-10,43,42,41,41,40,38,96,93,91,29.94,29.79,31,10,38,0.97
2013-5-11,55,46,39,50,37,26,100,74,40,29.96,29.71,30,8,35,0.04
2013-5-12,52,43,37,37,30,24,90,62,36,30.09,29.95,20,8,24,0.00
2013-5-13,49,42,33,40,34,30,93,74,52,30.14,29.92,15,3,15,0.00
2013-5-14,80,60,46,58,48,34,87,67,44,29.92,29.46,23,4,32,0.00
2013-5-15,77,68,58,61,50,44,71,54,37,29.76,29.46,21,4,24,0.00
2013-5-16,72,59,52,50,43,31,74,56,38,29.95,29.75,19,6,22,0.00
2013-5-17,54,50,46,47,43,37,93,79,54,30.09,29.93,21,8,24,0.34
2013-5-18,56,52,48,48,46,44,89,80,73,30.05,29.92,10,2,10,0.00
2013-5-19,77,58,49,65,53,46,93,84,64,29.93,29.67,17,2,23,0.00
2013-5-20,86,71,55,64,58,52,96,66,35,29.70,29.59,26,5,32,0.00
2013-5-21,81,69,55,65,60,54,98,75,47,29.62,29.53,27,5,31,0.18
2013-5-22,65,55,48,58,53,48,98,93,79,29.71,29.57,20,3,21,0.90
2013-5-23,52,46,42,52,42,36,98,86,75,30.27,29.71,25,11,29,0.09
2013-5-24,47,43,39,41,36,33,85,74,62,30.41,30.27,15,3,19,0.00
2013-5-25,51,46,42,41,38,34,90,74,61,30.39,30.26,9,1,12,0.00
2013-5-26,52,47,41,45,41,36,87,80,67,30.28,30.14,12,3,18,0.00
2013-5-27,52,49,46,48,45,40,98,89,66,30.15,29.87,17,3,22,0.09
2013-5-28,57,50,47,57,50,46,100,97,93,29.87,29.67,11,2,14,0.51
2013-5-29,70,58,50,63,55,49,99,92,74,29.87,29.72,14,2,18,0.00
2013-5-30,75,63,54,67,59,52,97,88,75,29.84,29.69,18,4,22,0.15
2013-5-31,78,66,55,67,61,52,100,83,56,29.79,29.63,21,5,28,0.18
2013-6-1,77,66,53,67,60,52,98,83,59,29.64,29.53,26,4,27,0.29
2013-6-2,62,52,45,60,47,42,96,84,69,29.98,29.58,17,4,20,0.02
2013-6-3,64,54,44,51,45,38,93,74,46,30.05,29.97,14,2,16,0.00
2013-6-4,60,53,48,51,46,40,91,76,53,30.14,30.03,14,2,15,0.00
2013-6-5,56,52,49,50,47,45,91,84,68,30.10,29.94,16,2,18,0.05
2013-6-6,56,52,50,50,48,45,93,84,69,29.95,29.88,20,4,22,0.03
2013-6-7,65,57,51,51,46,36,87,69,36,29.94,29.86,16,2,17,0.00
2013-6-8,59,54,48,52,49,45,90,82,75,29.98,29.85,10,1,11,0.00
2013-6-9,63,56,52,60,53,48,92,88,85,29.99,29.78,14,3,19,0.00
2013-6-10,65,58,54,62,56,52,97,92,87,29.81,29.72,13,1,14,0.00
2013-6-11,79,65,56,65,59,55,96,83,57,29.84,29.73,11,1,13,0.00
2013-6-12,68,60,55,64,58,53,98,92,85,29.87,29.60,28,3,47,1.68
2013-6-13,68,60,55,57,54,51,96,80,66,30.02,29.65,18,4,21,0.01
2013-6-14,59,56,54,52,50,48,89,81,71,30.10,29.97,14,2,17,0.00
2013-6-15,67,59,53,66,56,48,97,90,77,30.01,29.75,13,2,19,1.17
2013-6-16,84,74,65,66,60,49,97,66,31,29.81,29.74,21,4,23,0.00
2013-6-17,80,62,56,61,56,52,91,78,49,29.93,29.80,20,4,25,0.00
2013-6-18,60,57,52,54,49,38,91,77,47,30.04,29.90,21,6,23,0.01
2013-6-19,65,59,49,54,47,37,86,67,39,30.11,30.03,11,1,12,0.00
2013-6-20,70,63,54,60,54,44,84,73,53,30.11,30.02,11,1,16,0.00
2013-6-21,77,69,60,69,64,55,97,83,69,30.05,29.83,23,1,23,0.65
2013-6-22,75,65,58,69,63,57,98,94,75,30.04,29.87,17,2,19,0.25
2013-6-23,89,76,62,73,67,61,97,77,54,29.94,29.79,18,4,25,0.00
2013-6-24,82,73,66,68,67,62,94,81,61,29.93,29.75,16,2,19,0.01
2013-6-25,82,69,61,71,66,60,98,92,67,29.86,29.71,19,2,20,0.78
2013-6-26,77,67,61,69,64,60,98,90,74,29.75,29.65,17,1,22,0.02
2013-6-27,82,68,60,71,65,59,98,89,61,29.70,29.59,22,1,27,0.19
2013-6-28,78,70,63,65,62,61,96,80,57,29.63,29.51,18,5,24,0.15
2013-6-29,68,64,60,62,59,56,96,85,68,29.76,29.53,23,7,26,0.01
2013-6-30,71,65,60,57,51,44,82,62,39,29.97,29.75,23,8,27,0.01
2013-7-1,73,66,60,56,52,45,75,63,46,30.05,29.96,22,7,24,0.00
2013-7-2,64,61,59,57,53,48,92,76,60,30.06,30.01,15,3,17,0.00
2013-7-3,62,60,59,61,58,57,98,93,85,30.03,29.97,15,2,15,1.19
2013-7-4,74,66,60,65,62,59,99,88,69,30.03,29.95,12,1,14,0.00
2013-7-5,81,72,65,67,62,58,91,74,52,30.00,29.93,11,1,14,0.00
2013-7-6,79,70,64,67,65,61,93,82,61,29.97,29.88,10,1,15,0.00
2013-7-7,85,77,70,72,69,66,92,78,60,29.91,29.83,12,1,13,0.00
2013-7-8,87,75,67,75,70,65,96,85,67,29.91,29.81,16,2,20,0.17
2013-7-9,83,70,63,76,68,62,98,93,77,29.92,29.73,16,2,17,0.43
2013-7-10,78,75,65,74,66,56,94,75,49,29.93,29.72,17,4,20,0.00
2013-7-11,78,67,58,63,58,54,91,75,47,30.04,29.93,11,1,13,0.00
2013-7-12,73,66,54,66,60,52,92,82,72,30.10,30.02,9,1,10,0.00
2013-7-13,78,69,58,69,62,55,92,79,61,30.10,30.03,14,0,14,0.00
2013-7-14,78,72,64,72,68,62,94,87,81,30.16,30.09,8,1,8,0.00
2013-7-15,78,74,68,74,71,66,96,89,77,30.21,30.15,9,1,11,0.00
2013-7-16,88,80,74,78,75,73,98,85,67,30.20,30.12,10,0,12,0.00
2013-7-17,92,83,76,77,75,73,92,78,57,30.19,30.05,11,1,14,0.00
2013-7-18,94,86,76,76,73,70,92,69,47,30.06,29.79,22,5,23,0.00
2013-7-19,91,85,77,75,72,64,77,65,52,29.80,29.61,24,6,31,0.00
2013-7-20,83,70,66,66,62,58,83,75,51,29.90,29.70,21,4,22,0.00
2013-7-21,72,67,63,65,62,56,95,82,70,29.93,29.81,11,3,13,0.59
2013-7-22,80,72,64,73,69,63,97,88,71,29.82,29.60,12,1,17,0.03
2013-7-23,75,69,63,72,59,53,92,73,55,29.93,29.59,20,5,22,0.04
2013-7-24,68,62,54,56,53,51,90,73,57,30.02,29.92,11,2,14,0.00
2013-7-25,74,66,54,63,58,51,90,76,54,30.02,29.89,16,2,16,0.00
2013-7-26,72,68,62,67,63,58,94,84,71,29.90,29.77,22,3,23,0.58
2013-7-27,62,57,53,58,51,46,92,79,61,29.85,29.78,18,4,21,0.00
2013-7-28,67,59,53,57,52,49,93,79,63,29.93,29.75,19,6,20,0.02
2013-7-29,67,61,57,58,55,51,91,81,70,30.13,29.91,10,1,12,0.00
2013-7-30,71,63,55,64,60,53,97,89,78,30.14,30.04,10,0,13,0.22
2013-7-31,70,65,62,66,63,60,98,95,84,30.04,29.86,12,0,14,0.45
2013-8-1,77,68,61,61,58,54,95,71,45,29.90,29.83,18,4,21,0.01
2013-8-2,81,70,62,68,61,57,94,74,47,29.87,29.76,15,2,18,0.33
2013-8-3,74,66,58,62,57,53,90,74,55,30.04,29.87,10,1,11,0.00
2013-8-4,68,64,59,60,57,55,95,80,70,30.16,30.05,12,2,12,0.00
2013-8-5,74,65,56,64,59,54,92,81,66,30.07,29.80,18,2,22,0.00
2013-8-6,84,73,63,70,66,61,95,79,56,29.80,29.70,14,2,19,0.00
2013-8-7,76,70,63,72,66,61,97,90,77,29.90,29.67,18,1,21,0.50
2013-8-8,75,67,61,63,57,51,96,72,52,30.00,29.90,11,2,13,0.00
2013-8-9,81,69,57,65,59,52,90,70,55,29.98,29.89,13,2,18,0.00
2013-8-10,71,63,57,65,59,55,94,87,69,30.07,29.98,7,0,8,0.00
2013-8-11,71,64,56,64,60,54,94,88,70,30.06,29.95,12,0,15,0.10
2013-8-12,75,68,61,68,64,55,97,90,78,29.96,29.81,20,2,24,0.05
2013-8-13,67,60,52,55,51,47,84,73,59,30.11,29.92,15,3,17,0.00
2013-8-14,68,60,50,54,50,46,89,71,53,30.16,30.08,10,2,12,0.00
2013-8-15,77,66,56,58,54,49,88,67,43,30.08,30.01,13,1,14,0.00
2013-8-16,74,67,58,66,60,54,93,80,65,30.13,30.04,7,1,8,0.00
2013-8-17,80,67,55,66,61,54,95,82,62,30.19,30.11,6,0,8,0.01
2013-8-18,77,66,55,68,61,52,94,82,69,30.16,30.03,8,0,11,0.00
2013-8-19,84,72,59,69,61,56,89,71,46,30.04,29.93,16,1,21,0.00
2013-8-20,86,74,64,69,65,62,93,75,46,30.00,29.92,17,3,19,0.00
2013-8-21,89,79,66,71,68,61,92,69,52,29.95,29.80,23,5,33,0.00
2013-8-22,74,69,61,70,64,56,95,86,69,30.05,29.91,17,1,18,0.19
2013-8-23,72,66,58,65,60,55,93,83,74,30.14,30.05,10,2,11,0.00
2013-8-24,78,68,56,69,62,54,95,81,65,30.20,30.11,10,0,14,0.01
2013-8-25,91,80,70,71,64,58,77,61,39,30.13,29.99,29,6,29,0.00
2013-8-26,91,82,75,76,70,66,77,69,53,30.02,29.84,19,6,25,0.00
2013-8-27,96,84,71,75,73,68,93,71,48,29.87,29.68,21,4,24,0.00
2013-8-28,76,70,66,74,68,64,97,93,81,29.97,29.74,17,4,20,0.00
2013-8-29,79,73,67,73,68,65,95,86,73,30.02,29.89,10,1,12,0.00
2013-8-30,94,76,67,76,69,62,92,80,50,29.91,29.68,19,4,22,0.00
2013-8-31,72,68,64,68,65,62,97,91,85,29.80,29.73,10,2,12,0.00
2013-9-1,82,68,61,71,65,60,98,90,67,29.75,29.61,19,1,22,0.12
2013-9-2,69,64,58,62,58,51,95,79,64,29.93,29.73,13,2,16,0.00
2013-9-3,75,63,52,60,54,50,92,74,50,30.02,29.92,11,1,12,0.00
2013-9-4,81,67,56,67,60,53,92,79,53,30.07,29.95,15,3,16,0.00
2013-9-5,67,64,55,62,53,48,86,70,55,30.23,30.07,16,4,20,0.00
2013-9-6,76,66,52,68,59,49,92,79,46,30.17,29.90,11,1,17,0.00
2013-9-7,84,73,67,72,67,64,96,83,57,29.93,29.80,22,2,26,1.13
2013-9-8,72,68,65,66,64,62,93,88,80,30.00,29.89,18,5,22,0.00
2013-9-9,84,74,68,77,70,65,96,88,73,29.91,29.69,16,2,19,0.03
2013-9-10,95,86,78,74,67,63,72,54,36,29.83,29.70,27,7,31,0.00
2013-9-11,82,74,69,68,66,64,92,77,57,29.99,29.82,17,2,17,0.02
2013-9-12,72,65,56,66,59,48,95,82,67,30.05,29.87,20,3,23,0.02
2013-9-13,60,54,48,49,46,42,87,73,58,30.15,30.05,14,5,19,0.00
2013-9-14,71,58,45,50,46,43,93,67,43,30.12,29.94,16,2,16,0.00
2013-9-15,61,57,53,58,53,47,96,85,62,30.17,29.94,18,2,23,0.51
2013-9-16,59,53,45,50,46,41,87,76,65,30.34,30.17,17,6,20,0.00
2013-9-17,66,58,46,58,52,44,93,81,67,30.29,30.05,14,1,18,0.00
2013-9-18,73,67,59,67,62,54,94,83,75,30.05,29.83,10,1,12,0.14
2013-9-19,78,71,68,72,68,65,96,90,79,29.84,29.67,17,2,23,0.19
2013-9-20,74,67,59,68,62,54,97,86,68,29.72,29.61,18,5,22,0.04
2013-9-21,59,56,52,55,49,46,92,78,63,29.90,29.72,18,5,19,0.00
2013-9-22,57,53,44,49,45,40,85,75,61,30.03,29.90,13,3,14,0.00
2013-9-23,62,58,54,55,50,46,80,73,64,30.08,29.99,15,2,15,0.00
2013-9-24,66,61,53,58,54,50,94,79,69,30.02,29.91,12,2,15,0.00
2013-9-25,66,60,50,58,54,48,95,83,72,29.95,29.90,10,2,11,0.00
2013-9-26,70,60,51,62,56,49,98,86,73,30.04,29.93,8,1,11,0.01
2013-9-27,70,61,49,62,56,47,96,85,69,30.11,30.01,12,1,14,0.01
2013-9-28,77,66,55,66,61,53,94,84,59,30.01,29.77,24,3,30,0.16
2013-9-29,65,57,50,54,50,45,97,81,53,30.00,29.86,12,0,18,0.01
2013-9-30,69,58,47,57,51,45,94,78,49,29.94,29.77,13,1,15,0.01
2013-10-1,82,66,54,64,59,50,95,78,53,29.87,29.74,28,5,32,0.00
2013-10-2,67,61,52,57,49,37,91,68,33,30.04,29.87,5,0,7,0.00
2013-10-3,72,63,56,67,60,53,98,90,76,29.93,29.77,14,1,18,1.24
2013-10-4,63,60,55,63,59,55,100,98,96,29.98,29.81,18,2,21,0.23
2013-10-5,68,64,58,68,63,58,99,98,95,29.91,29.65,14,1,15,0.86
2013-10-6,66,56,47,64,49,42,96,79,52,29.69,29.59,18,2,21,0.12
2013-10-7,65,54,48,49,46,43,95,75,45,30.02,29.63,18,5,21,0.01
2013-10-8,64,56,44,58,50,42,93,80,63,30.11,30.02,15,1,18,0.00
2013-10-9,64,58,50,54,50,47,93,77,64,30.17,30.08,11,1,13,0.00
2013-10-10,62,54,44,59,52,43,98,93,88,30.13,30.00,5,0,6,0.01
2013-10-11,65,57,48,59,54,47,99,89,80,30.03,29.91,10,0,12,0.01
2013-10-12,67,61,52,63,54,43,94,79,58,30.08,29.85,14,2,17,0.34
2013-10-13,60,51,43,46,42,39,92,73,45,30.35,30.08,16,2,19,0.00
2013-10-14,58,49,40,50,45,38,98,85,69,30.37,30.10,10,1,10,0.00
2013-10-15,58,54,49,57,51,44,98,91,80,30.10,29.67,20,1,22,0.22
2013-10-16,55,51,48,51,48,44,96,90,82,29.85,29.70,12,2,15,0.02
2013-10-17,53,48,43,47,44,40,95,86,62,29.85,29.74,12,1,15,0.08
2013-10-18,52,46,40,45,41,38,93,82,73,29.87,29.74,21,4,24,0.00
2013-10-19,53,45,39,41,38,31,92,77,45,29.84,29.67,21,2,33,0.03
2013-10-20,49,43,35,47,40,34,96,91,80,29.81,29.65,17,1,19,0.07
2013-10-21,49,41,34,45,33,23,92,72,57,29.87,29.67,28,8,28,0.00
2013-10-22,47,39,31,33,29,24,80,68,51,29.89,29.84,18,4,19,0.00
2013-10-23,43,37,31,30,27,22,89,68,44,29.94,29.87,16,6,18,0.00
2013-10-24,44,38,34,30,28,26,81,67,53,30.21,29.93,16,8,19,0.00
2013-10-25,51,42,30,31,28,24,86,61,41,30.31,29.82,29,8,37,0.00
2013-10-26,52,47,43,38,32,27,68,54,42,29.99,29.69,32,9,36,0.00
2013-10-27,55,44,33,34,32,29,85,62,40,29.99,29.84,18,4,24,0.00
2013-10-28,45,42,36,39,34,29,85,76,60,30.38,29.97,26,8,28,0.00
2013-10-29,48,43,35,44,40,29,93,88,79,30.36,30.10,10,1,14,0.00
2013-10-30,53,46,40,52,45,38,98,96,91,30.10,29.69,9,0,14,0.01
2013-10-31,63,56,46,62,55,44,99,96,91,29.70,29.11,28,4,28,0.76
2013-11-1,47,45,43,44,42,40,95,90,86,29.66,29.19,30,7,33,0.07
2013-11-2,47,43,38,42,39,34,94,84,63,30.10,29.66,14,2,16,0.01
2013-11-3,48,41,32,42,38,30,95,88,78,30.26,30.09,11,0,18,0.00
2013-11-4,53,48,45,46,43,42,90,84,73,30.22,30.02,24,3,24,0.00
2013-11-5,53,50,46,50,47,44,97,89,78,30.20,29.83,20,1,27,0.04
2013-11-6,56,46,33,55,42,27,95,86,68,30.08,29.65,24,9,30,0.37
2013-11-7,41,35,29,32,29,26,92,80,67,30.17,30.07,19,5,21,0.00
2013-11-8,46,38,28,39,31,26,93,78,54,30.25,29.82,20,4,22,0.01
2013-11-9,54,48,41,42,36,26,77,65,53,29.97,29.68,36,12,44,0.00
2013-11-10,49,43,39,33,30,27,68,60,47,30.24,29.97,23,7,25,0.00
2013-11-11,44,34,25,36,26,15,94,72,61,30.48,29.99,19,6,24,0.10
2013-11-12,31,26,21,18,16,13,82,67,49,30.65,30.48,19,8,24,0.00
2013-11-13,43,32,21,22,16,12,78,54,29,30.50,29.99,32,11,40,0.00
2013-11-14,47,41,34,31,26,19,63,54,46,29.99,29.82,28,9,31,0.00
2013-11-15,55,46,41,36,33,30,80,61,47,29.88,29.81,16,4,17,0.00
2013-11-16,60,46,40,56,44,35,98,93,79,29.85,29.46,24,5,26,0.16
2013-11-17,64,52,42,62,49,35,99,90,73,29.53,28.94,38,10,44,1.08
2013-11-18,42,35,29,35,26,22,79,71,65,30.20,29.53,35,13,40,0.00
2013-11-19,39,32,24,35,27,21,89,82,73,30.34,30.19,9,1,17,0.00
2013-11-20,42,38,34,37,34,30,94,83,75,30.24,30.07,24,4,25,0.07
2013-11-21,46,42,37,42,39,36,95,92,81,30.18,30.07,8,0,11,0.00
2013-11-22,40,33,27,37,27,16,93,79,63,30.40,30.16,18,6,19,0.02
2013-11-23,27,20,14,17,9,3,76,62,46,30.66,30.33,24,10,28,0.00
2013-11-24,27,19,10,9,6,3,81,57,36,30.66,30.23,25,8,29,0.00
2013-11-25,30,27,22,26,20,6,93,77,47,30.23,29.97,28,10,29,0.00
2013-11-26,32,27,16,28,19,5,86,71,47,30.14,29.96,22,6,23,0.00
2013-11-27,27,20,12,19,12,6,90,72,57,30.22,30.11,21,6,21,0.00
2013-11-28,27,23,19,19,17,14,90,76,64,30.46,30.16,13,3,15,0.00
2013-11-29,33,25,13,27,18,10,89,76,58,30.61,30.33,13,3,17,0.00
2013-11-30,47,37,30,33,29,23,80,71,57,30.33,29.97,18,4,19,0.00
2013-12-1,38,35,31,33,30,27,92,84,75,30.08,29.94,11,2,12,0.00
2013-12-2,40,36,28,36,32,26,94,86,77,29.94,29.76,20,2,20,0.09
2013-12-3,39,38,35,39,37,34,98,97,93,29.76,29.66,17,6,19,0.28
2013-12-4,52,43,38,51,42,37,99,97,85,29.73,29.40,33,4,33,0.09
2013-12-5,40,26,17,37,18,9,89,72,62,30.21,29.50,34,10,38,0.00
2013-12-6,18,13,9,10,5,2,79,71,62,30.51,30.18,20,9,21,0.00
2013-12-7,17,10,3,6,2,-2,87,71,55,30.67,30.51,15,5,17,0.00
2013-12-8,29,17,7,27,13,1,95,83,66,30.60,29.88,20,5,22,0.00
2013-12-9,28,14,0,26,9,-6,100,79,64,30.14,29.84,34,9,34,0.00
2013-12-10,19,8,-3,11,2,-8,92,76,66,30.23,29.90,33,8,33,0.00
2013-12-11,13,7,-1,10,-1,-9,88,70,56,30.50,30.23,22,7,26,0.00
2013-12-12,18,10,-2,12,2,-9,79,70,63,30.48,30.15,22,7,24,0.00
2013-12-13,28,21,17,25,17,11,90,81,76,30.20,30.13,24,6,25,0.00
2013-12-14,28,25,20,24,23,18,94,91,82,30.17,29.88,24,8,26,0.00
2013-12-15,21,12,3,18,4,-6,92,72,61,30.09,29.85,22,11,28,0.00
2013-12-16,21,10,-2,13,4,-7,89,76,50,30.15,29.96,16,4,16,0.00
2013-12-17,34,25,14,26,20,10,100,81,67,29.99,29.84,25,8,25,0.03
2013-12-18,34,25,13,27,16,7,79,69,52,30.08,29.71,24,6,25,0.00
2013-12-19,34,31,27,32,28,23,95,87,77,29.95,29.73,23,6,24,0.02
2013-12-20,32,29,26,30,28,24,96,94,91,29.84,29.74,14,1,16,0.00
2013-12-21,34,30,26,32,28,25,97,94,86,29.85,29.64,27,6,29,0.00
2013-12-22,33,27,22,30,25,20,97,95,87,30.05,29.63,23,9,30,0.00
2013-12-23,23,16,7,21,14,4,100,89,82,30.33,30.05,20,7,24,0.00
2013-12-24,20,10,-1,15,6,-4,88,83,72,30.50,30.31,18,5,19,0.00
2013-12-25,23,20,14,21,18,11,91,88,83,30.31,30.02,19,5,22,0.00
2013-12-26,25,21,15,22,17,12,90,84,76,30.21,30.02,17,3,23,0.00
2013-12-27,39,29,15,31,25,13,98,83,73,30.23,29.93,22,5,24,0.03
2013-12-28,46,38,30,34,31,26,90,75,63,30.00,29.69,23,6,28,0.01
2013-12-29,42,25,3,32,19,-3,91,77,67,30.17,29.66,22,7,28,0.00
2013-12-30,5,0,-7,-1,-7,-12,82,71,50,30.31,30.16,13,7,14,0.00
2013-12-31,9,6,3,4,0,-6,83,76,63,30.36,30.16,16,7,17,0.00
2014-1-1,13,9,2,8,4,-8,86,80,62,30.36,30.25,14,7,16,0.00
2014-1-2,14,10,3,13,4,-5,95,79,65,30.39,30.21,19,8,19,0.00